Station info - map view · info · telemetry · weather · raw · status · beacons · messages · bulletins · browse · moving · my account
Callsign, ship name or locator: Clear       
It is possible to search using wildcards (*?) after a prefix. Example: OH*
APRS station OE5LHM-9 - show graphs
Map loading...
Comment: 145.500MHz
Mic-E message: Off duty
Location: 48°20.88' N 14°25.36' E - locator JN78FI03RM - show map - static map
0.5 miles Southeast bearing 142° from Gallneukirchen, Politischer Bezirk Urfahr Umgebung, Upper Austria, Austria [?]
0.9 miles West bearing 283° from Engerwitzdorf, Politischer Bezirk Urfahr Umgebung, Upper Austria, Austria
6.9 miles Northeast bearing 65° from Linz, Upper Austria, Austria
74.0 miles Northeast bearing 59° from Salzburg, Salzburg, Austria
Last position: 2018-08-05 09:28:40 EDT (12d 18h31m ago)
2018-08-05 15:28:40 CEST local time at Gallneukirchen, Austria [?]
Altitude: 1070 ft
Course: 270°
Device: Yaesu: FTM-400DR (rig)
Last path: OE5LHM-9>TXRP88 via WIDE1-1,qAR,OE5WWO (good)
Positions stored: 52820
Other SSIDs: OE5LHM-1 OE5LHM-10 OE5LHM-15 OE5LHM-7
Stations near current position of OE5LHM-9 - show more
callsign distance last heard - EDT      callsign distance last heard - EDT
OE5LHM-920.6 yards 152°2018-08-01 19:00:17 OE5MIL-72.8 miles 238°2018-08-16 04:06:03
OE5FSM-153.9 miles 257°2018-08-01 11:51:34 OE5SRG B4.9 miles 255°2018-08-02 00:53:08
OE5SRG-B4.9 miles 255°2018-08-02 00:53:18 OE5SRG-DP4.9 miles 255°2018-08-16 20:10:11
OE5HCL-105.2 miles 244°2018-08-18 03:57:05 EDUARD5.3 miles 242°2018-07-26 04:34:09
POSEIDON5.3 miles 248°2018-07-21 10:50:08 GREIN5.3 miles 248°2018-07-26 04:34:09
MS SISSI5.3 miles 250°2018-07-26 04:34:09 RHEINTANK 365.6 miles 231°2018-07-26 04:32:02
ZBOROV5.6 miles 220°2018-07-26 04:34:09 MUSTANG5.7 miles 231°2018-07-26 04:33:05
SIGMA+LAMBDA5.8 miles 251°2018-07-21 09:01:44 DOKW25.8 miles 216°2018-07-19 04:10:38
OE5ERN-105.8 miles 255°2018-08-18 03:49:06 LEOBEN LOGSERV5.8 miles 219°2018-07-25 23:14:49
OE5ERN-95.8 miles 263°2018-08-17 10:41:28 STADT WIEN5.8 miles 215°2018-07-25 19:15:57
Stations which heard OE5LHM-9 directly on radio –
callsign pkts first heard - EDT last heard longest (tx => rx) longest at - EDT
OE6XTR 1 2018-08-05 09:03:32 2018-08-05 09:03:32 JN78DG > JN77VN 84.1 miles 125° 2018-08-05 09:03:32
OE2XHR-11 9 2018-08-05 06:13:05 2018-08-05 08:30:53 JN68VA > JN67MK 53.1 miles 221° 2018-08-05 08:30:53
OE5ERN-10 23 2018-08-05 08:50:21 2018-08-05 09:12:56 JN78BD > JN78DH 13.2 miles 29° 2018-08-05 08:50:21
OE5XDO-10 12 2018-08-05 07:59:27 2018-08-05 08:58:04 JN67PU > JN68VM 51.0 miles 27° 2018-08-05 07:59:27
OE6XLR-11 3 2018-08-05 06:15:27 2018-08-05 06:29:48 JN67LD > JN77OI 104.8 miles 82° 2018-08-05 06:15:27
OE5XIM-10 21 2018-08-05 08:19:37 2018-08-05 09:23:40 JN67TW > JN78DN 51.8 miles 36° 2018-08-05 08:19:37
OE5XGL-10 18 2018-08-05 08:00:02 2018-08-05 08:53:51 JN78CE > JN67VV 28.0 miles 223° 2018-08-05 08:53:51
OE5REO-10 7 2018-08-05 08:26:41 2018-08-05 09:10:36 JN78EI > JN77BV 31.3 miles 198° 2018-08-05 09:10:36
OE2XZR 2 2018-08-05 07:27:40 2018-08-05 07:50:34 JN67NR > JN67NT 5.2 miles 14° 2018-08-05 07:27:40
OE2XZR-10 41 2018-08-05 06:58:54 2018-08-05 08:05:52 JN67OJ > JN67NT 30.0 miles 351° 2018-08-05 06:58:54
S55UJE-11 15 2018-08-05 06:15:26 2018-08-05 06:48:21 JN67LG > JN76BL 79.0 miles 135° 2018-08-05 06:37:04
OE3VBA-10 1 2018-08-05 08:52:41 2018-08-05 08:52:41 JN78CE > JN78RG 58.1 miles 85° 2018-08-05 08:52:41
OE2XGR-10 52 2018-08-05 06:15:58 2018-08-05 07:31:57 JN67MR > JN67OH 31.6 miles 163° 2018-08-05 07:31:57
DB0FFL-10 6 2018-08-05 07:12:58 2018-08-05 07:39:59 JN67OM > JN68EO 81.8 miles 332° 2018-08-05 07:12:58
OE5XUL-10 6 2018-08-05 08:02:22 2018-08-05 08:51:31 JN78CE > JN68SE 27.8 miles 273° 2018-08-05 08:51:31
OE5XHR-10 10 2018-08-05 08:02:57 2018-08-05 08:56:19 JN67QU > JN68XR 66.4 miles 22° 2018-08-05 08:02:57
OE5EBO-10 5 2018-08-05 07:11:44 2018-08-05 07:54:04 JN67OM > JN68KD 44.7 miles 342° 2018-08-05 07:11:44
OE5XSO-10 15 2018-08-05 07:53:29 2018-08-05 08:25:31 JN67OU > JN68SB 24.3 miles 50° 2018-08-05 07:53:29
OE5WWO 6 2018-08-05 09:04:42 2018-08-05 09:28:40 JN78FI > JN78DH 6.0 miles 236° 2018-08-05 09:28:40
OE2XWR-10 6 2018-08-05 06:17:11 2018-08-05 07:25:20 JN67NQ > JN67IE 40.5 miles 209° 2018-08-05 07:25:20
OE5XOL-10 3 2018-08-05 09:13:31 2018-08-05 09:16:26 JN78FI > JN78DJ 8.0 miles 305° 2018-08-05 09:16:26
DO1GER-10 3 2018-08-05 07:21:42 2018-08-05 08:03:32 JN67NP > JN68MG 42.5 miles 353° 2018-08-05 07:21:42

Only position packets which were originated by the station are shown here. The range statistics show some extra long hops, because some digipeaters do not correctly add themselves to the digipeater path. Please check the raw packets.
About this site
This page shows real-time information collected from the Automatic Position Reporting System Internet network (APRS-IS). APRS is used by amateur (ham) radio operators to transmit real-time position information, weather data, telemetry and messages over the radio. A vehicle equipped with a GPS receiver, a VHF transmitter or HF transceiver and a small computer device called a tracker transmits it's location, speed and course in a small data packet, which is then received by a nearby iGate receiving site which forwards the packet on the Internet. Systems connected to the Internet can send information on the APRS-IS without a radio transmitter, or collect and display information transmitted anywhere in the world.
FAQ · Blog · Discussion group · Linking to aprs.fi · AIS sites · Service status · Database statistics · Advertising on aprs.fi · Technical details · API · Change log · Planned changes · Credits and thanks · Terms Of Service · iPhone/iPad APRS